Quiterianopolis, Brazil
Current Conditions -  °F | °C
As of 5:00 AM on Saturday 22 Nov 2014 (Local Time) from SBJU Reporting Station
Broken Clouds Broken Clouds  
Wind Chill: 79°   Ceiling: 1600
Heat Index: 82°   Visibility: 6mi
Dew Point: 75°   Wind: 6mph
Humidity: 89%   Direction: 70°ENE
Pressure: 29.97"   Gusts: NA
Location:  5.84°S, 40.7°W
Report Text: SBJU 220800Z 07005KT 9999 BKN016 26/24 Q1015
Loading
Personal Weather Stations






























Interactive Weather Map New forecast layout! Learn more

10-Day Weather Forecast

Advertisements
Track Severe Weather on mobile